createdAt,value
2017-11-21T07:18:21.955Z,3.80
2017-11-21T07:19:21.921Z,5.55
2017-11-21T07:22:06.472Z,3.94
2017-11-21T07:23:06.283Z,6.67
2017-11-21T07:25:50.799Z,4.35
2017-11-21T07:26:50.649Z,5.60
2017-11-21T07:29:35.053Z,4.16
2017-11-21T07:30:35.005Z,3.06
2017-11-21T07:33:19.397Z,7.50
2017-11-21T07:34:19.347Z,10.53
2017-11-21T07:37:03.800Z,8.80
2017-11-21T07:38:03.709Z,11.40
2017-11-21T07:40:48.676Z,6.75
2017-11-21T07:41:51.166Z,5.64
2017-11-21T07:44:33.041Z,8.26
2017-11-21T07:45:32.926Z,9.80
2017-11-21T07:48:17.331Z,3.67
2017-11-21T07:49:17.276Z,15.40
2017-11-21T07:52:01.660Z,6.49
2017-11-21T07:53:01.630Z,4.41
2017-11-21T07:55:46.027Z,2.60
2017-11-21T07:56:45.980Z,2.39
2017-11-21T07:59:30.392Z,2.80
2017-11-21T08:00:30.906Z,2.55
2017-11-21T08:03:13.730Z,5.53
2017-11-21T08:04:16.271Z,4.21
2017-11-21T08:06:58.094Z,3.17
2017-11-21T08:07:58.045Z,2.60
2017-11-21T08:08:58.041Z,3.05
2017-11-21T08:09:58.048Z,6.55
2017-11-21T08:10:58.037Z,14.29
2017-11-21T08:11:58.028Z,15.59
2017-11-21T08:12:58.029Z,8.70
2017-11-21T08:13:58.038Z,6.50
2017-11-21T08:14:58.010Z,9.75
2017-11-21T08:15:58.003Z,10.56
2017-11-21T08:16:57.996Z,12.11
2017-11-21T08:17:58.002Z,13.79
2017-11-21T08:18:57.994Z,6.34
2017-11-21T08:19:57.988Z,13.76
2017-11-21T08:20:57.975Z,9.10
2017-11-21T08:21:57.982Z,5.38
2017-11-21T08:22:57.967Z,4.04
2017-11-21T08:23:57.950Z,5.18
2017-11-21T08:24:57.948Z,5.29
2017-11-21T08:25:57.949Z,5.32
2017-11-21T08:26:57.938Z,6.62
2017-11-21T08:27:57.936Z,5.09
2017-11-21T08:28:57.949Z,6.72
2017-11-21T08:29:57.920Z,8.34
2017-11-21T08:30:57.916Z,7.81
2017-11-21T08:31:57.911Z,9.68
2017-11-21T08:32:57.901Z,7.65
2017-11-21T08:33:57.911Z,8.10
2017-11-21T08:34:57.891Z,7.44
2017-11-21T08:35:57.883Z,5.72
2017-11-21T08:36:57.883Z,5.10
2017-11-21T08:37:57.880Z,4.44
2017-11-21T08:38:57.858Z,5.20
2017-11-21T08:39:57.859Z,4.70
2017-11-21T08:40:57.852Z,4.53
2017-11-21T08:41:57.848Z,4.37
2017-11-21T08:42:57.845Z,4.32
2017-11-21T08:43:57.838Z,4.50
2017-11-21T08:44:57.833Z,4.40
2017-11-21T08:45:57.848Z,3.51
2017-11-21T08:46:57.824Z,3.55
2017-11-21T08:47:57.816Z,5.00
2017-11-21T08:48:57.813Z,4.95
2017-11-21T08:49:57.809Z,7.55
2017-11-21T08:50:57.794Z,8.03
2017-11-21T08:51:57.793Z,4.58
2017-11-21T08:52:57.782Z,4.01
2017-11-21T08:53:57.781Z,3.00
2017-11-21T08:54:57.810Z,4.36
2017-11-21T08:55:57.759Z,7.66
2017-11-21T08:56:57.759Z,11.06
2017-11-21T08:57:57.750Z,10.48
2017-11-21T08:58:57.759Z,9.10
2017-11-21T08:59:57.753Z,10.73
2017-11-21T09:00:57.744Z,8.18
2017-11-21T09:01:57.729Z,9.39
2017-11-21T09:02:57.732Z,5.88
2017-11-21T09:03:57.734Z,4.78
2017-11-21T09:04:57.714Z,4.48
2017-11-21T09:05:57.704Z,4.75
2017-11-21T09:06:57.707Z,4.60
2017-11-21T09:07:57.692Z,6.26
2017-11-21T09:08:57.687Z,10.33
2017-11-21T09:09:58.657Z,5.81
2017-11-21T09:10:58.653Z,6.16
2017-11-21T09:11:57.669Z,4.76
2017-11-21T09:12:57.666Z,6.48
2017-11-21T09:13:57.660Z,7.81
2017-11-21T09:14:57.660Z,5.51
2017-11-21T09:16:02.558Z,5.47
2017-11-21T09:16:58.160Z,5.72
2017-11-21T09:17:57.632Z,4.22
2017-11-21T09:18:57.634Z,4.41
2017-11-21T09:19:57.627Z,3.47
2017-11-21T09:20:57.632Z,4.30
2017-11-21T09:21:57.615Z,4.13
2017-11-21T09:22:57.607Z,4.29
2017-11-21T09:23:57.604Z,5.16
2017-11-21T09:24:57.591Z,4.24
2017-11-21T09:25:57.594Z,4.20
2017-11-21T09:26:58.163Z,3.97
2017-11-21T09:27:57.586Z,3.59
2017-11-21T09:28:57.578Z,4.20
2017-11-21T09:29:57.585Z,4.64
2017-11-21T09:30:57.558Z,3.81
2017-11-21T09:31:57.556Z,4.90
2017-11-21T09:32:57.550Z,3.38
2017-11-21T09:33:57.540Z,3.47
2017-11-21T09:34:57.538Z,3.67
2017-11-21T09:35:57.533Z,2.83
2017-11-21T09:36:57.530Z,2.23
2017-11-21T09:37:57.520Z,4.38
2017-11-21T09:38:57.515Z,5.22
2017-11-21T09:39:57.511Z,3.45
2017-11-21T09:40:57.505Z,4.37
2017-11-21T09:41:57.501Z,3.03
2017-11-21T09:42:57.487Z,4.13
2017-11-21T09:43:57.489Z,3.62
2017-11-21T09:44:57.480Z,1.96
2017-11-21T09:45:57.478Z,4.78
2017-11-21T09:46:57.474Z,3.03
2017-11-21T09:47:57.465Z,2.65
2017-11-21T09:48:57.458Z,2.45
2017-11-21T09:49:57.447Z,5.41
2017-11-21T09:50:57.447Z,4.75
2017-11-21T09:51:57.440Z,1.98
2017-11-21T09:52:57.432Z,2.70
2017-11-21T09:53:57.433Z,4.27
2017-11-21T09:54:57.427Z,2.42
2017-11-21T09:55:57.422Z,4.56
2017-11-21T09:56:57.418Z,3.12
2017-11-21T09:57:57.414Z,3.84
2017-11-21T09:58:57.397Z,1.98
2017-11-21T09:59:57.399Z,2.58
2017-11-21T10:00:57.405Z,3.26
2017-11-21T10:01:57.387Z,2.91
2017-11-21T10:02:57.371Z,3.57
2017-11-21T10:03:57.378Z,4.02
2017-11-21T10:04:57.374Z,2.19
2017-11-21T10:05:57.366Z,2.58
2017-11-21T10:06:57.366Z,2.47
2017-11-21T10:07:57.346Z,4.13
2017-11-21T10:08:57.345Z,3.60
2017-11-21T10:09:57.338Z,2.92
2017-11-21T10:10:57.344Z,3.99
2017-11-21T10:11:57.336Z,3.08
2017-11-21T10:12:57.327Z,2.48
2017-11-21T10:13:57.324Z,2.46
2017-11-21T10:14:58.180Z,2.70
2017-11-21T10:15:57.307Z,2.51
2017-11-21T10:16:57.293Z,2.60
2017-11-21T10:17:57.296Z,2.54
2017-11-21T10:18:57.284Z,3.23
2017-11-21T10:19:57.281Z,3.05
2017-11-21T10:20:57.278Z,2.87
2017-11-21T10:21:57.270Z,4.35
2017-11-21T10:22:57.272Z,4.00
2017-11-21T10:23:57.259Z,5.51
2017-11-21T10:24:57.252Z,4.39
2017-11-21T10:25:57.241Z,2.80
2017-11-21T10:26:57.240Z,3.16
2017-11-21T10:27:57.255Z,4.14
2017-11-21T10:28:57.238Z,3.46
2017-11-21T10:29:58.193Z,2.81
2017-11-21T10:30:57.229Z,3.25
2017-11-21T10:31:57.218Z,3.13
2017-11-21T10:32:58.195Z,3.51
2017-11-21T10:33:57.201Z,3.54
2017-11-21T10:34:57.207Z,4.96
2017-11-21T10:35:57.203Z,3.53
2017-11-21T10:36:57.193Z,4.99
2017-11-21T10:37:57.697Z,3.20
2017-11-21T10:38:57.177Z,3.12
2017-11-21T10:39:57.200Z,3.74
2017-11-21T10:40:57.167Z,4.05
2017-11-21T10:41:57.166Z,2.77
2017-11-21T10:42:57.153Z,2.41
2017-11-21T10:43:57.165Z,2.03
2017-11-21T10:44:57.145Z,2.52
2017-11-21T10:45:57.141Z,3.24
2017-11-21T10:46:57.141Z,2.78
2017-11-21T10:47:57.130Z,2.54
2017-11-21T10:48:57.130Z,3.06
2017-11-21T10:49:57.122Z,2.88
2017-11-21T10:50:57.706Z,3.49
2017-11-21T10:51:57.112Z,2.80
2017-11-21T10:52:57.110Z,4.36
2017-11-21T10:53:57.092Z,3.85
2017-11-21T10:54:59.707Z,3.69
2017-11-21T10:55:57.086Z,4.23
2017-11-21T10:56:57.078Z,4.00
2017-11-21T10:57:57.073Z,5.90
2017-11-21T10:58:57.068Z,4.83
2017-11-21T10:59:57.064Z,4.37
2017-11-21T11:00:57.058Z,4.73
2017-11-21T11:01:57.053Z,5.36
2017-11-21T11:02:57.700Z,3.65
2017-11-21T11:03:57.049Z,4.52
2017-11-21T11:04:57.038Z,5.32
2017-11-21T11:05:57.033Z,5.35
2017-11-21T11:06:57.030Z,3.17
2017-11-21T11:07:57.023Z,4.81
2017-11-21T11:08:57.019Z,2.94
2017-11-21T11:09:57.017Z,2.55
2017-11-21T11:10:57.013Z,2.78
2017-11-21T11:11:57.010Z,3.94
2017-11-21T11:12:57.707Z,3.13
2017-11-21T11:13:56.994Z,3.31
2017-11-21T11:14:56.984Z,2.95
2017-11-21T11:15:56.978Z,2.06
2017-11-21T11:16:56.973Z,2.20
2017-11-21T11:17:56.965Z,2.68
2017-11-21T11:18:56.964Z,2.52
2017-11-21T11:19:56.965Z,2.67
2017-11-21T11:20:56.957Z,2.38
2017-11-21T11:21:56.945Z,1.64
2017-11-21T11:22:56.950Z,1.75
2017-11-21T11:23:56.942Z,1.82
2017-11-21T11:24:56.937Z,4.91
2017-11-21T11:25:56.931Z,2.22
2017-11-21T11:26:56.924Z,2.24
2017-11-21T11:27:56.924Z,4.15
2017-11-21T11:28:56.927Z,3.62
2017-11-21T11:29:56.908Z,1.79
2017-11-21T11:30:57.715Z,1.64
2017-11-21T11:31:56.895Z,1.60
2017-11-21T11:32:56.891Z,3.94
2017-11-21T11:33:56.899Z,3.18
2017-11-21T11:34:56.882Z,2.17
2017-11-21T11:35:56.879Z,2.18
2017-11-21T11:36:56.892Z,2.39
2017-11-21T11:37:56.864Z,2.06
2017-11-21T11:38:56.858Z,1.54
2017-11-21T11:39:56.857Z,3.50
2017-11-21T11:40:56.849Z,2.92
2017-11-21T11:41:56.851Z,1.69
2017-11-21T11:42:56.846Z,1.83
2017-11-21T11:43:56.840Z,1.68
2017-11-21T11:44:56.832Z,2.03
2017-11-21T11:45:56.831Z,2.75
2017-11-21T11:46:56.830Z,2.13
2017-11-21T11:47:57.727Z,1.57
2017-11-21T11:48:57.724Z,1.60
2017-11-21T11:49:56.815Z,1.62
2017-11-21T11:50:56.806Z,1.68
2017-11-21T11:51:56.796Z,2.39
2017-11-21T11:52:56.792Z,2.12
2017-11-21T11:53:56.788Z,2.17
2017-11-21T11:54:56.781Z,3.28
2017-11-21T11:55:56.777Z,3.11
2017-11-21T11:56:57.727Z,2.54
2017-11-21T11:57:56.776Z,3.54
2017-11-21T11:58:56.769Z,4.62
2017-11-21T11:59:56.761Z,3.84
2017-11-21T12:00:56.749Z,3.19
2017-11-21T12:01:56.749Z,3.37
2017-11-21T12:02:56.748Z,3.12
2017-11-21T12:03:56.754Z,3.10
2017-11-21T12:04:56.728Z,3.49
2017-11-21T12:05:56.733Z,3.18
2017-11-21T12:06:56.725Z,1.77
2017-11-21T12:07:57.232Z,1.66
2017-11-21T12:08:56.714Z,2.24
2017-11-21T12:09:56.710Z,3.23
2017-11-21T12:10:56.713Z,2.02
2017-11-21T12:11:56.714Z,2.03
2017-11-21T12:12:57.239Z,3.35
2017-11-21T12:13:56.704Z,1.30
2017-11-21T12:14:56.686Z,1.29
2017-11-21T12:15:57.234Z,1.64
2017-11-21T12:16:57.267Z,1.69
2017-11-21T12:17:56.673Z,1.61
2017-11-21T12:18:56.657Z,2.77
2017-11-21T12:19:56.666Z,4.57
2017-11-21T12:20:56.657Z,6.26
2017-11-21T12:21:56.651Z,7.94
2017-11-21T12:22:56.655Z,7.87
2017-11-21T12:23:56.638Z,6.66
2017-11-21T12:24:56.632Z,7.94
2017-11-21T12:25:56.630Z,8.91
2017-11-21T12:26:56.640Z,8.20
2017-11-21T12:27:57.247Z,9.29
2017-11-21T12:28:56.617Z,7.03
2017-11-21T12:29:56.623Z,5.72
2017-11-21T12:30:56.609Z,6.61
2017-11-21T12:31:56.605Z,3.92
2017-11-21T12:32:56.606Z,3.07
2017-11-21T12:33:56.603Z,6.81
2017-11-21T12:34:56.585Z,9.18
2017-11-21T12:35:57.264Z,9.10
2017-11-21T12:36:56.581Z,11.63
2017-11-21T12:37:56.593Z,11.18
2017-11-21T12:38:56.575Z,8.98
2017-11-21T12:39:56.567Z,8.39
2017-11-21T12:40:56.572Z,8.10
2017-11-21T12:41:56.559Z,8.28
2017-11-21T12:42:56.560Z,6.33
2017-11-21T12:43:56.558Z,2.88
2017-11-21T12:44:56.549Z,3.19
2017-11-21T12:45:56.530Z,2.88
2017-11-21T12:46:56.543Z,2.39
2017-11-21T12:47:56.529Z,1.69
2017-11-21T12:48:56.522Z,2.43
2017-11-21T12:49:56.514Z,4.22
2017-11-21T12:50:57.261Z,2.78
2017-11-21T12:51:56.512Z,3.08
2017-11-21T12:52:56.511Z,2.60
2017-11-21T12:53:56.510Z,3.26
2017-11-21T12:54:56.522Z,3.87
2017-11-21T12:55:56.494Z,5.74
2017-11-21T12:56:56.481Z,4.25
2017-11-21T12:57:57.274Z,2.98
2017-11-21T12:58:56.474Z,1.83
2017-11-21T12:59:56.472Z,2.04
2017-11-21T13:00:57.269Z,1.72
2017-11-21T13:01:56.465Z,1.74
2017-11-21T13:02:56.453Z,2.40
2017-11-21T13:03:56.452Z,3.78
2017-11-21T13:04:56.449Z,3.74
2017-11-21T13:05:56.443Z,5.88
2017-11-21T13:06:56.442Z,6.26
2017-11-21T13:07:56.437Z,2.68
2017-11-21T13:08:56.430Z,2.74
2017-11-21T13:09:56.422Z,3.53
2017-11-21T13:10:56.424Z,4.62
2017-11-21T13:11:56.407Z,3.58
2017-11-21T13:12:56.408Z,3.98
2017-11-21T13:13:56.403Z,5.29
2017-11-21T13:14:56.398Z,3.44
2017-11-21T13:15:56.399Z,2.33
2017-11-21T13:16:56.385Z,4.71
2017-11-21T13:17:56.375Z,5.48
2017-11-21T13:18:56.378Z,4.92
2017-11-21T13:19:56.377Z,6.91
2017-11-21T13:20:56.365Z,4.68
2017-11-21T13:21:56.364Z,5.54
2017-11-21T13:22:56.368Z,5.32
2017-11-21T13:23:56.361Z,3.24
2017-11-21T13:24:56.345Z,3.26
2017-11-21T13:25:56.345Z,4.71
2017-11-21T13:26:56.342Z,5.02
2017-11-21T13:27:56.337Z,3.78
2017-11-21T13:28:56.325Z,3.95
2017-11-21T13:29:56.336Z,5.54
2017-11-21T13:30:56.322Z,8.31
2017-11-21T13:31:56.317Z,4.20
2017-11-21T13:32:56.312Z,3.44
2017-11-21T13:33:56.301Z,3.02
2017-11-21T13:34:56.299Z,3.01
2017-11-21T13:35:56.304Z,2.81
2017-11-21T13:36:56.291Z,3.50
2017-11-21T13:37:56.292Z,3.34
2017-11-21T13:38:56.287Z,5.24
2017-11-21T13:39:56.289Z,3.92
2017-11-21T13:40:56.280Z,3.43
2017-11-21T13:41:56.277Z,2.91
2017-11-21T13:42:56.265Z,3.04
2017-11-21T13:43:56.264Z,5.45
2017-11-21T13:44:56.255Z,4.78
2017-11-21T13:45:56.248Z,5.00
2017-11-21T13:46:56.240Z,5.66
2017-11-21T13:47:56.268Z,4.41
2017-11-21T13:48:56.236Z,2.85
2017-11-21T13:49:56.230Z,4.13
2017-11-21T13:50:56.230Z,4.72
2017-11-21T13:51:56.222Z,4.46
2017-11-21T13:52:56.226Z,7.44
2017-11-21T13:53:56.209Z,5.15
2017-11-21T13:54:56.223Z,3.72
2017-11-21T13:55:56.788Z,3.01
2017-11-21T13:56:56.206Z,2.20
2017-11-21T13:57:56.189Z,4.40
2017-11-21T13:58:56.787Z,3.12
2017-11-21T13:59:56.187Z,3.89
2017-11-21T14:00:56.183Z,3.99
2017-11-21T14:01:56.172Z,5.13
2017-11-21T14:02:56.173Z,4.76
2017-11-21T14:03:56.168Z,4.59
2017-11-21T14:04:56.164Z,2.90
2017-11-21T14:05:56.167Z,4.19
2017-11-21T14:06:56.153Z,4.68
2017-11-21T14:07:56.151Z,3.07
2017-11-21T14:08:56.143Z,2.84
2017-11-21T14:09:56.140Z,3.26
2017-11-21T14:10:56.138Z,3.58
2017-11-21T14:11:56.129Z,3.06
2017-11-21T14:12:56.125Z,3.19
2017-11-21T14:13:56.128Z,4.13
2017-11-21T14:14:56.105Z,6.42
2017-11-21T14:15:56.103Z,6.16
2017-11-21T14:16:56.123Z,5.49
2017-11-21T14:17:56.106Z,3.67
2017-11-21T14:18:56.110Z,5.59
2017-11-21T14:19:56.095Z,6.60
2017-11-21T14:20:56.091Z,5.90
2017-11-21T14:21:56.082Z,4.76
2017-11-21T14:22:56.079Z,5.71
2017-11-21T14:23:56.077Z,5.61
2017-11-21T14:24:56.078Z,5.10
2017-11-21T14:25:56.803Z,5.68
2017-11-21T14:26:56.048Z,4.63
2017-11-21T14:27:56.053Z,4.44
2017-11-21T14:28:56.050Z,4.56
2017-11-21T14:29:56.056Z,7.34
2017-11-21T14:30:56.795Z,5.63
2017-11-21T14:31:56.791Z,8.19
2017-11-21T14:32:56.021Z,7.00
2017-11-21T14:33:56.032Z,6.76
2017-11-21T14:34:56.014Z,6.57
2017-11-21T14:35:56.038Z,8.13
2017-11-21T14:36:56.003Z,5.00
2017-11-21T14:37:56.002Z,5.24
2017-11-21T14:38:56.811Z,6.30
2017-11-21T14:39:55.999Z,5.35
2017-11-21T14:40:55.996Z,5.84
2017-11-21T14:41:55.977Z,7.84
2017-11-21T14:42:56.805Z,7.91
2017-11-21T14:43:55.971Z,6.40
2017-11-21T14:44:55.974Z,6.50
2017-11-21T14:45:55.960Z,6.45
2017-11-21T14:46:55.951Z,5.94
2017-11-21T14:47:55.953Z,7.30
2017-11-21T14:48:55.945Z,8.75
2017-11-21T14:49:55.947Z,7.04
2017-11-21T14:50:55.928Z,6.84
2017-11-21T14:51:56.803Z,6.05
2017-11-21T14:52:55.918Z,5.78
2017-11-21T14:53:55.923Z,7.26
2017-11-21T14:54:55.910Z,8.22
2017-11-21T14:55:55.930Z,7.31
2017-11-21T14:56:55.895Z,7.08
2017-11-21T14:57:55.894Z,8.44
2017-11-21T14:58:55.889Z,8.09
2017-11-21T14:59:55.889Z,7.05
2017-11-21T15:00:55.881Z,7.17
2017-11-21T15:01:55.876Z,7.18
2017-11-21T15:02:55.896Z,7.43
2017-11-21T15:03:56.819Z,9.56
2017-11-21T15:04:55.859Z,9.20
2017-11-21T15:05:55.877Z,9.81
2017-11-21T15:06:55.842Z,7.82
2017-11-21T15:07:55.839Z,7.54
2017-11-21T15:08:55.829Z,8.99
2017-11-21T15:09:55.836Z,10.44
2017-11-21T15:10:55.837Z,9.39
2017-11-21T15:11:56.314Z,9.59
2017-11-21T15:12:55.823Z,9.17
2017-11-21T15:13:55.813Z,10.76
2017-11-21T15:14:55.806Z,12.94
2017-11-21T15:15:55.796Z,9.36
2017-11-21T15:16:55.803Z,8.87
2017-11-21T15:17:55.790Z,9.90
2017-11-21T15:18:55.776Z,8.75
2017-11-21T15:19:56.341Z,7.54
2017-11-21T15:20:55.762Z,8.23
2017-11-21T15:21:55.766Z,9.37
2017-11-21T15:22:56.324Z,10.22
2017-11-21T15:23:55.759Z,10.71
2017-11-21T15:24:55.738Z,9.94
2017-11-21T15:25:55.745Z,8.50
2017-11-21T15:26:56.324Z,8.58
2017-11-21T15:27:55.726Z,9.12
2017-11-21T15:28:55.718Z,9.14
2017-11-21T15:29:55.717Z,8.88
2017-11-21T15:30:55.723Z,12.15
2017-11-21T15:31:55.718Z,11.44
2017-11-21T15:32:55.708Z,10.56
2017-11-21T15:33:55.711Z,9.94
2017-11-21T15:34:55.692Z,12.18
2017-11-21T15:35:55.681Z,13.10
2017-11-21T15:36:56.326Z,8.19
2017-11-21T15:37:55.672Z,9.77
2017-11-21T15:38:55.680Z,12.21
2017-11-21T15:39:55.663Z,10.62
2017-11-21T15:40:56.322Z,10.10
2017-11-21T15:41:55.648Z,11.93
2017-11-21T15:42:55.641Z,10.70
2017-11-21T15:43:55.648Z,11.91
2017-11-21T15:44:55.630Z,10.19
2017-11-21T15:45:55.618Z,11.61
2017-11-21T15:46:55.625Z,10.20
2017-11-21T15:47:55.608Z,10.46
2017-11-21T15:48:55.610Z,10.36
2017-11-21T15:49:55.604Z,10.15
2017-11-21T15:50:55.624Z,10.40
2017-11-21T15:51:55.593Z,9.19
2017-11-21T15:52:55.579Z,10.86
2017-11-21T15:53:55.568Z,11.84
2017-11-21T15:54:55.583Z,9.40
2017-11-21T15:55:55.574Z,11.14
2017-11-21T15:56:55.554Z,11.73
2017-11-21T15:57:55.568Z,11.96
2017-11-21T15:58:55.541Z,9.80
2017-11-21T15:59:55.546Z,11.48
2017-11-21T16:00:55.532Z,10.27
2017-11-21T16:01:55.525Z,9.66
2017-11-21T16:02:55.557Z,8.86
2017-11-21T16:03:55.509Z,8.64
2017-11-21T16:04:55.502Z,10.22
2017-11-21T16:05:56.335Z,12.86
2017-11-21T16:06:55.504Z,13.19
2017-11-21T16:07:55.481Z,12.92
2017-11-21T16:08:55.488Z,11.32
2017-11-21T16:09:55.486Z,11.55
2017-11-21T16:10:55.474Z,8.92
2017-11-21T16:11:56.272Z,10.20
2017-11-21T16:12:55.469Z,10.16
2017-11-21T16:13:55.457Z,9.07
2017-11-21T16:14:55.442Z,9.46
2017-11-21T16:15:55.440Z,9.74
2017-11-21T16:16:55.443Z,10.43
2017-11-21T16:17:55.425Z,9.76
2017-11-21T16:18:55.445Z,10.78
2017-11-21T16:19:55.426Z,9.11
2017-11-21T16:20:55.411Z,9.67
2017-11-21T16:21:55.405Z,16.46
2017-11-21T16:22:55.397Z,10.79
2017-11-21T16:23:55.395Z,9.66
2017-11-21T16:24:55.382Z,10.63
2017-11-21T16:25:55.386Z,11.20
2017-11-21T16:26:55.390Z,10.71
2017-11-21T16:27:55.364Z,10.68
2017-11-21T16:28:55.364Z,10.02
2017-11-21T16:29:55.369Z,13.02
2017-11-21T16:30:55.383Z,10.70
2017-11-21T16:31:55.356Z,9.96
2017-11-21T16:32:55.347Z,10.15
2017-11-21T16:33:55.341Z,9.74
2017-11-21T16:34:55.338Z,11.10
2017-11-21T16:35:55.321Z,12.51
2017-11-21T16:36:55.350Z,10.12
2017-11-21T16:37:55.309Z,9.47
2017-11-21T16:38:55.301Z,8.80
2017-11-21T16:39:55.296Z,10.01
2017-11-21T16:40:55.296Z,9.97
2017-11-21T16:41:55.296Z,10.10
2017-11-21T16:42:55.286Z,12.14
2017-11-21T16:43:55.278Z,10.40
2017-11-21T16:44:55.267Z,10.50
2017-11-21T16:45:55.257Z,10.93
2017-11-21T16:46:55.253Z,11.78
2017-11-21T16:47:55.270Z,15.16
2017-11-21T16:48:55.262Z,12.30
2017-11-21T16:49:55.243Z,10.84
2017-11-21T16:50:55.239Z,14.51
2017-11-21T16:51:55.223Z,16.12
2017-11-21T16:52:55.226Z,14.56
2017-11-21T16:53:55.203Z,13.41
2017-11-21T16:54:55.214Z,14.28
2017-11-21T16:55:55.205Z,9.54
2017-11-21T16:56:55.202Z,10.14
2017-11-21T16:57:55.185Z,11.64
2017-11-21T16:58:55.170Z,12.69
2017-11-21T16:59:55.175Z,14.71
2017-11-21T17:00:55.172Z,13.85
2017-11-21T17:01:55.163Z,16.13
2017-11-21T17:02:55.148Z,14.81
2017-11-21T17:03:55.148Z,13.89
2017-11-21T17:04:55.146Z,17.51
2017-11-21T17:05:55.144Z,14.89
2017-11-21T17:06:55.132Z,13.62
2017-11-21T17:07:55.121Z,12.70
2017-11-21T17:08:55.122Z,15.46
2017-11-21T17:09:55.112Z,14.41
2017-11-21T17:10:55.110Z,12.64
2017-11-21T17:11:55.100Z,15.28
2017-11-21T17:12:55.090Z,13.75
2017-11-21T17:13:55.101Z,16.39
2017-11-21T17:14:55.079Z,17.36
2017-11-21T17:15:55.074Z,16.27
2017-11-21T17:16:55.102Z,17.04
2017-11-21T17:17:55.061Z,15.12
2017-11-21T17:18:55.059Z,14.44
2017-11-21T17:19:55.057Z,15.86
2017-11-21T17:20:55.044Z,14.92
2017-11-21T17:21:55.046Z,16.29
2017-11-21T17:22:55.037Z,13.64
2017-11-21T17:23:55.031Z,15.10
2017-11-21T17:24:55.017Z,16.55
2017-11-21T17:25:55.017Z,14.11
2017-11-21T17:26:55.004Z,16.02
2017-11-21T17:27:54.999Z,16.76
2017-11-21T17:28:54.994Z,16.14
2017-11-21T17:29:54.991Z,15.32
2017-11-21T17:30:55.006Z,15.44
2017-11-21T17:31:54.973Z,15.22
2017-11-21T17:32:54.962Z,15.84
2017-11-21T17:33:54.959Z,13.57
2017-11-21T17:34:54.957Z,14.43
2017-11-21T17:35:54.960Z,14.34
2017-11-21T17:36:54.936Z,14.82
2017-11-21T17:37:54.935Z,13.73
2017-11-21T17:38:54.936Z,14.29
2017-11-21T17:39:54.918Z,14.02
2017-11-21T17:40:54.912Z,15.00
2017-11-21T17:41:54.912Z,16.78
2017-11-21T17:42:54.904Z,15.41
2017-11-21T17:43:54.901Z,14.21
2017-11-21T17:44:54.894Z,15.62
2017-11-21T17:45:54.890Z,15.83
2017-11-21T17:46:54.879Z,15.21
2017-11-21T17:47:54.873Z,14.72
2017-11-21T17:48:54.868Z,14.98
2017-11-21T17:49:55.379Z,13.29
2017-11-21T17:50:54.848Z,14.64
2017-11-21T17:51:54.844Z,15.16
2017-11-21T17:52:54.829Z,15.12
2017-11-21T17:53:54.835Z,13.93
2017-11-21T17:54:54.834Z,16.37
2017-11-21T17:55:54.817Z,17.02
2017-11-21T17:56:54.817Z,18.60
2017-11-21T17:57:55.520Z,17.02
2017-11-21T17:58:54.801Z,14.78
2017-11-21T17:59:54.797Z,15.56
2017-11-21T18:00:54.788Z,16.96
2017-11-21T18:01:54.775Z,16.28
2017-11-21T18:02:54.775Z,15.13
2017-11-21T18:03:55.390Z,17.25
2017-11-21T18:04:54.773Z,16.68
2017-11-21T18:05:54.752Z,17.36
2017-11-21T18:06:54.756Z,19.51
2017-11-21T18:07:54.737Z,15.88
2017-11-21T18:08:54.739Z,17.78
2017-11-21T18:09:54.734Z,17.69
2017-11-21T18:10:54.722Z,14.43
2017-11-21T18:11:54.722Z,15.28
2017-11-21T18:12:54.702Z,16.67
2017-11-21T18:13:54.701Z,15.36
2017-11-21T18:14:54.699Z,17.10
2017-11-21T18:15:55.411Z,15.15
2017-11-21T18:16:57.387Z,14.14
2017-11-21T18:17:54.675Z,15.46
2017-11-21T18:18:54.675Z,14.15
2017-11-21T18:19:54.661Z,15.22
2017-11-21T18:20:54.652Z,16.44
2017-11-21T18:21:54.650Z,15.03
2017-11-21T18:22:54.644Z,15.63
2017-11-21T18:23:54.641Z,16.08
2017-11-21T18:24:54.634Z,15.54
2017-11-21T18:25:54.618Z,16.09
2017-11-21T18:26:54.618Z,19.80
2017-11-21T18:27:54.947Z,15.18
2017-11-21T18:28:54.597Z,16.39
2017-11-21T18:29:54.609Z,16.46
2017-11-21T18:30:54.589Z,15.38
2017-11-21T18:31:54.586Z,16.48
2017-11-21T18:32:54.578Z,15.43
2017-11-21T18:33:54.577Z,18.05
2017-11-21T18:34:54.585Z,17.13
2017-11-21T18:35:54.562Z,15.41
2017-11-21T18:36:54.553Z,13.97
2017-11-21T18:37:54.548Z,12.98
2017-11-21T18:38:54.542Z,16.98
2017-11-21T18:39:54.537Z,16.74
2017-11-21T18:40:54.537Z,15.12
2017-11-21T18:41:54.522Z,14.46
2017-11-21T18:42:54.523Z,18.05
2017-11-21T18:43:54.509Z,17.29
2017-11-21T18:44:54.501Z,16.29
2017-11-21T18:45:55.411Z,12.96
2017-11-21T18:46:54.492Z,12.69
2017-11-21T18:47:54.489Z,12.68
2017-11-21T18:48:54.475Z,13.27
2017-11-21T18:49:54.470Z,14.30
2017-11-21T18:50:55.416Z,14.57
2017-11-21T18:51:54.453Z,17.70
2017-11-21T18:52:54.450Z,13.66
2017-11-21T18:53:54.446Z,15.30
2017-11-21T18:54:54.440Z,13.32
2017-11-21T18:55:54.435Z,13.12
2017-11-21T18:56:55.421Z,14.52
2017-11-21T18:57:54.437Z,14.45
2017-11-21T18:58:54.405Z,16.68
2017-11-21T18:59:54.404Z,15.80
2017-11-21T19:00:54.404Z,13.53
2017-11-21T19:01:54.383Z,14.60
2017-11-21T19:02:54.916Z,13.80
2017-11-21T19:03:54.390Z,15.69
2017-11-21T19:04:56.130Z,15.42
2017-11-21T19:05:54.364Z,17.16
2017-11-21T19:06:54.359Z,14.73
2017-11-21T19:07:54.345Z,15.31
2017-11-21T19:08:54.336Z,15.48
2017-11-21T19:09:54.340Z,16.35
2017-11-21T19:10:54.336Z,17.34
2017-11-21T19:11:54.320Z,15.04
2017-11-21T19:12:54.322Z,14.63
2017-11-21T19:13:54.311Z,15.38
2017-11-21T19:14:54.308Z,15.30
2017-11-21T19:15:54.314Z,17.91
2017-11-21T19:16:54.296Z,14.82
2017-11-21T19:17:54.288Z,15.61
2017-11-21T19:18:54.274Z,15.32
2017-11-21T19:19:54.276Z,16.09
2017-11-21T19:20:54.267Z,13.48
2017-11-21T19:21:54.253Z,14.01
2017-11-21T19:22:54.255Z,12.57
2017-11-21T19:23:54.267Z,12.40
2017-11-21T19:24:54.262Z,13.46
2017-11-21T19:25:54.239Z,12.65
2017-11-21T19:26:54.220Z,14.14
2017-11-21T19:27:54.226Z,14.97
2017-11-21T19:28:54.210Z,13.56
2017-11-21T19:29:54.794Z,12.86
2017-11-21T19:30:54.202Z,14.42
2017-11-21T19:31:55.652Z,13.61
2017-11-21T19:32:55.061Z,17.03
2017-11-21T19:33:54.178Z,15.42
2017-11-21T19:34:54.174Z,14.89
2017-11-21T19:35:54.583Z,11.67
2017-11-21T19:36:54.163Z,13.57
2017-11-21T19:37:54.151Z,13.51
2017-11-21T19:38:54.148Z,11.45
2017-11-21T19:39:54.139Z,16.50
2017-11-21T19:40:54.935Z,14.40
2017-11-21T19:41:54.149Z,16.77
2017-11-21T19:42:54.137Z,13.81
2017-11-21T19:43:54.110Z,15.05
2017-11-21T19:44:54.109Z,15.00
2017-11-21T19:45:54.119Z,13.17
2017-11-21T19:46:54.105Z,15.98
2017-11-21T19:47:54.939Z,11.96
2017-11-21T19:48:54.085Z,14.12
2017-11-21T19:49:54.096Z,14.72
2017-11-21T19:50:54.069Z,14.76
2017-11-21T19:51:54.067Z,15.67
2017-11-21T19:52:54.051Z,13.48
2017-11-21T19:53:54.050Z,14.53
2017-11-21T19:54:54.126Z,13.72
2017-11-21T19:55:54.044Z,13.93
2017-11-21T19:56:54.028Z,13.43
2017-11-21T19:57:54.018Z,15.32
2017-11-21T19:58:54.013Z,15.19
2017-11-21T19:59:54.001Z,11.85
2017-11-21T20:00:53.993Z,12.62
2017-11-21T20:01:53.988Z,13.36
2017-11-21T20:02:54.003Z,16.68
2017-11-21T20:03:54.953Z,16.99
2017-11-21T20:04:53.985Z,17.41
2017-11-21T20:05:53.992Z,15.80
2017-11-21T20:06:54.948Z,11.60
2017-11-21T20:07:53.971Z,13.10
2017-11-21T20:08:53.967Z,13.31
2017-11-21T20:09:53.939Z,14.96
2017-11-21T20:10:53.940Z,15.06
2017-11-21T20:11:53.924Z,15.05
2017-11-21T20:12:54.460Z,15.66
2017-11-21T20:13:53.918Z,15.30
2017-11-21T20:14:53.946Z,16.54
2017-11-21T20:15:53.908Z,16.11
2017-11-21T20:16:53.909Z,13.29
2017-11-21T20:17:53.894Z,15.89
2017-11-21T20:18:53.912Z,15.62
2017-11-21T20:19:54.450Z,16.95
2017-11-21T20:20:54.451Z,13.80
2017-11-21T20:22:00.451Z,14.35
2017-11-21T20:22:53.853Z,15.69
2017-11-21T20:23:53.865Z,13.84
2017-11-21T20:24:53.849Z,17.16
2017-11-21T20:25:54.453Z,18.70
2017-11-21T20:26:53.833Z,14.58
2017-11-21T20:27:53.824Z,16.58
2017-11-21T20:28:53.835Z,14.92
2017-11-21T20:29:53.806Z,15.94
2017-11-21T20:30:53.802Z,14.89
2017-11-21T20:31:53.797Z,14.47
2017-11-21T20:32:54.460Z,14.77
2017-11-21T20:33:53.786Z,16.63
2017-11-21T20:34:54.475Z,14.63
2017-11-21T20:35:53.769Z,15.30
2017-11-21T20:36:53.773Z,13.29
2017-11-21T20:37:53.759Z,13.64
2017-11-21T20:38:54.476Z,14.59
2017-11-21T20:39:53.749Z,14.18
2017-11-21T20:40:53.734Z,12.02
2017-11-21T20:41:53.728Z,13.97
2017-11-21T20:42:53.736Z,14.59
2017-11-21T20:43:53.707Z,14.60
2017-11-21T20:44:54.462Z,20.41
2017-11-21T20:45:54.458Z,16.72
2017-11-21T20:46:53.707Z,15.92
2017-11-21T20:47:53.685Z,14.84